Time;durP1;ratioP1;P1;durP2;ratioP2;P2;SDS_P1;SDS_P2;PMS_P1;PMS_P2;Temp;Humidity;BMP_temperature;BMP_pressure;BME280_temperature;BME280_humidity;BME280_pressure;Samples;Min_cycle;Max_cycle;Signal;HPM_P1;HPM_P2
2022/08/02 00:00:53;;;;;;;2.35;1.10;;;22.50;60.70;;;;;;5054487;28;20493;-67
2022/08/02 00:03:19;;;;;;;2.58;0.90;;;22.50;60.80;;;;;;5054425;28;20049;-67
2022/08/02 00:05:44;;;;;;;3.30;1.10;;;22.50;60.80;;;;;;5052293;28;20053;-67
2022/08/02 00:08:10;;;;;;;3.85;1.00;;;22.50;60.80;;;;;;5054623;28;20045;-67
2022/08/02 00:10:35;;;;;;;4.07;1.27;;;22.50;60.90;;;;;;5054843;28;20473;-67
2022/08/02 00:13:01;;;;;;;3.80;1.23;;;22.50;60.90;;;;;;5053459;28;20048;-67
2022/08/02 00:15:26;;;;;;;3.45;1.30;;;22.50;60.90;;;;;;5054654;28;20045;-67
2022/08/02 00:17:52;;;;;;;3.53;1.00;;;22.50;61.00;;;;;;5052782;28;20136;-67
2022/08/02 00:20:17;;;;;;;2.90;1.08;;;22.50;61.00;;;;;;5053631;28;20099;-67
2022/08/02 00:22:43;;;;;;;4.55;1.17;;;22.50;61.00;;;;;;5054059;28;20053;-67
2022/08/02 00:25:08;;;;;;;3.25;1.30;;;22.50;61.10;;;;;;5053325;28;20103;-67
2022/08/02 00:27:34;;;;;;;2.65;1.10;;;22.50;61.10;;;;;;5053467;28;20374;-67
2022/08/02 00:29:59;;;;;;;3.25;1.20;;;22.50;61.10;;;;;;5053632;28;20079;-67
2022/08/02 00:32:25;;;;;;;4.18;1.10;;;22.50;61.10;;;;;;5053126;28;20045;-67
2022/08/02 00:34:51;;;;;;;3.30;1.10;;;22.50;61.20;;;;;;5052863;28;20468;-67
2022/08/02 00:37:16;;;;;;;4.43;1.10;;;22.50;61.20;;;;;;5054344;28;20500;-67
2022/08/02 00:39:42;;;;;;;3.13;1.08;;;22.50;61.20;;;;;;5052957;28;20401;-67
2022/08/02 00:42:08;;;;;;;3.83;1.00;;;22.50;61.20;;;;;;5052937;28;20040;-67
2022/08/02 00:44:33;;;;;;;1.73;1.02;;;22.50;61.20;;;;;;5054032;28;20049;-67
2022/08/02 00:46:59;;;;;;;2.50;0.90;;;22.50;61.30;;;;;;5052357;28;20116;-68
2022/08/02 00:49:25;;;;;;;3.28;0.95;;;22.40;61.20;;;;;;5053291;28;20076;-67
2022/08/02 00:51:50;;;;;;;3.15;1.27;;;22.40;61.30;;;;;;5053650;28;20047;-67
2022/08/02 00:54:16;;;;;;;3.25;1.10;;;22.40;61.30;;;;;;5052961;28;20059;-67
2022/08/02 00:56:41;;;;;;;2.90;1.08;;;22.40;61.30;;;;;;5053895;28;20052;-67
2022/08/02 00:59:07;;;;;;;3.03;1.00;;;22.40;61.40;;;;;;5053462;28;20049;-67
2022/08/02 01:01:38;;;;;;;2.60;1.10;;;22.40;61.40;;;;;;5051448;28;20064;-67
2022/08/02 01:04:11;;;;;;;2.53;1.08;;;22.40;61.40;;;;;;5053289;28;20123;-67
2022/08/02 01:06:38;;;;;;;4.85;0.90;;;22.40;61.50;;;;;;5053596;28;20059;-67
2022/08/02 01:09:04;;;;;;;2.47;0.80;;;22.40;61.40;;;;;;5051136;28;20428;-67
2022/08/02 01:11:29;;;;;;;1.85;0.90;;;22.40;61.40;;;;;;5053550;28;20051;-67
2022/08/02 01:14:06;;;;;;;2.00;1.00;;;22.40;61.50;;;;;;5052840;28;20071;-67
2022/08/02 01:16:35;;;;;;;2.63;0.80;;;22.40;61.50;;;;;;5067957;28;20404;-67
2022/08/02 01:19:28;;;;;;;2.45;0.95;;;22.40;61.50;;;;;;5035034;28;20055;-67
2022/08/02 01:22:04;;;;;;;2.60;1.00;;;22.40;62.10;;;;;;5047941;28;20049;-67
2022/08/02 01:24:48;;;;;;;2.47;0.90;;;22.40;61.50;;;;;;5067598;28;20049;-67
2022/08/02 01:27:21;;;;;;;2.38;0.90;;;22.40;61.60;;;;;;5068413;28;20145;-67
2022/08/02 01:29:49;;;;;;;2.25;0.90;;;22.40;61.60;;;;;;5066559;28;20527;-68
2022/08/02 01:32:17;;;;;;;2.75;1.00;;;22.30;61.60;;;;;;5052100;28;20063;-67
2022/08/02 01:34:48;;;;;;;2.05;1.10;;;22.40;61.60;;;;;;5051821;28;20047;-68
2022/08/02 01:37:38;;;;;;;2.08;0.90;;;22.40;61.60;;;;;;5051238;28;20048;-67
2022/08/02 01:40:07;;;;;;;2.45;1.08;;;22.40;61.70;;;;;;5067907;28;20045;-68
2022/08/02 01:42:32;;;;;;;3.00;1.00;;;22.30;61.60;;;;;;5051665;28;20102;-67
2022/08/02 01:44:58;;;;;;;2.97;1.55;;;22.30;61.70;;;;;;5067282;28;20168;-67
2022/08/02 01:47:27;;;;;;;1.98;1.00;;;22.30;61.70;;;;;;5051592;28;20510;-67
2022/08/02 01:49:53;;;;;;;3.08;0.88;;;22.30;61.70;;;;;;5050590;28;20040;-67
2022/08/02 01:52:20;;;;;;;3.58;1.20;;;22.30;61.70;;;;;;5067925;28;20622;-67
2022/08/02 01:54:58;;;;;;;3.20;1.10;;;22.30;61.70;;;;;;5034711;28;20094;-67
2022/08/02 01:57:24;;;;;;;1.58;0.60;;;22.30;61.80;;;;;;5065511;28;20040;-67
2022/08/02 01:59:50;;;;;;;2.70;1.00;;;22.30;61.80;;;;;;5071021;28;20515;-67
2022/08/02 02:02:15;;;;;;;2.95;1.00;;;22.30;61.80;;;;;;5036310;28;20041;-67
2022/08/02 02:04:41;;;;;;;3.47;1.13;;;22.30;61.80;;;;;;5049731;28;20255;-67
2022/08/02 02:07:06;;;;;;;2.63;0.90;;;22.30;61.80;;;;;;5033468;28;20080;-67
2022/08/02 02:09:35;;;;;;;3.08;0.80;;;22.30;61.90;;;;;;5034381;28;20045;-67
2022/08/02 02:12:01;;;;;;;3.65;1.00;;;22.30;61.90;;;;;;5050110;28;20033;-67
2022/08/02 02:14:26;;;;;;;2.83;1.00;;;22.30;61.90;;;;;;5051141;28;20049;-67
2022/08/02 02:16:52;;;;;;;3.45;0.90;;;22.30;61.90;;;;;;5067674;28;20041;-67
2022/08/02 02:19:18;;;;;;;2.22;0.93;;;22.20;61.90;;;;;;5033671;28;20045;-67
2022/08/02 02:21:43;;;;;;;2.70;1.13;;;22.30;62.00;;;;;;5067985;28;20044;-67
2022/08/02 02:24:09;;;;;;;1.35;0.80;;;22.30;62.00;;;;;;5068104;28;20049;-67
2022/08/02 02:26:35;;;;;;;1.80;0.80;;;22.20;61.90;;;;;;5050393;28;20477;-67
2022/08/02 02:29:01;;;;;;;3.10;1.10;;;22.20;61.90;;;;;;5067240;28;20057;-67
2022/08/02 02:31:26;;;;;;;2.38;1.20;;;22.20;62.00;;;;;;5068029;28;20044;-67
2022/08/02 02:33:58;;;;;;;2.38;0.90;;;22.20;61.90;;;;;;5050025;28;20596;-67
2022/08/02 02:36:24;;;;;;;1.73;0.90;;;22.20;62.00;;;;;;5051112;28;20045;-67
2022/08/02 02:38:50;;;;;;;2.08;0.80;;;22.20;62.00;;;;;;5034292;28;20052;-68
2022/08/02 02:41:15;;;;;;;3.15;1.02;;;22.20;62.00;;;;;;5050381;28;20124;-67
2022/08/02 02:43:41;;;;;;;2.35;1.05;;;22.20;62.00;;;;;;5034505;28;20453;-68
2022/08/02 02:46:06;;;;;;;2.28;0.80;;;22.20;62.00;;;;;;5049892;28;20560;-67
2022/08/02 02:48:33;;;;;;;1.85;0.77;;;22.20;62.00;;;;;;5067662;28;20044;-67
2022/08/02 02:50:58;;;;;;;1.52;0.70;;;22.20;62.00;;;;;;5067532;28;20052;-67
2022/08/02 02:53:24;;;;;;;1.98;1.02;;;22.20;62.00;;;;;;5033629;28;20393;-67
2022/08/02 02:55:50;;;;;;;2.15;0.82;;;22.20;62.10;;;;;;5067261;28;20132;-68
2022/08/02 02:58:15;;;;;;;2.63;0.95;;;22.20;62.10;;;;;;5034115;28;20041;-67
2022/08/02 03:03:25;;;;;;;1.95;0.90;;;22.10;62.00;;;;;;5065011;28;20454;-67
2022/08/02 03:05:50;;;;;;;2.08;0.82;;;22.20;62.10;;;;;;5033889;28;20124;-67
2022/08/02 03:08:16;;;;;;;2.05;1.02;;;22.10;62.00;;;;;;5050156;28;20499;-67
2022/08/02 03:10:45;;;;;;;3.28;1.10;;;22.10;62.10;;;;;;5067393;28;20079;-67
2022/08/02 03:13:10;;;;;;;2.33;1.02;;;22.10;62.10;;;;;;5068784;28;20052;-67
2022/08/02 03:15:36;;;;;;;2.97;1.13;;;22.10;62.00;;;;;;5036871;28;20045;-67
2022/08/02 03:18:01;;;;;;;2.75;0.95;;;22.10;62.00;;;;;;5054350;28;20041;-67
2022/08/02 03:20:27;;;;;;;4.20;1.00;;;22.10;62.10;;;;;;5055826;28;20136;-67
2022/08/02 03:22:52;;;;;;;4.35;1.15;;;22.10;62.10;;;;;;5053201;28;20051;-67
2022/08/02 03:25:18;;;;;;;1.95;0.88;;;22.10;62.10;;;;;;5055510;28;20049;-67
2022/08/02 03:27:44;;;;;;;2.70;1.33;;;22.10;62.10;;;;;;5055280;28;20033;-67
2022/08/02 03:30:10;;;;;;;3.03;1.20;;;22.10;62.10;;;;;;5053198;28;20412;-67
2022/08/02 03:32:38;;;;;;;3.03;1.20;;;22.10;62.20;;;;;;5055205;28;20484;-67
2022/08/02 03:35:04;;;;;;;2.20;0.85;;;22.10;62.20;;;;;;5070215;28;20447;-67
2022/08/02 03:37:31;;;;;;;4.25;1.00;;;22.10;62.20;;;;;;5053189;28;20431;-67
2022/08/02 03:39:56;;;;;;;1.67;1.00;;;22.10;62.20;;;;;;5070187;28;20055;-67
2022/08/02 03:42:22;;;;;;;2.63;0.80;;;22.10;62.20;;;;;;5053447;28;20041;-68
2022/08/02 03:44:48;;;;;;;3.20;1.15;;;22.10;62.20;;;;;;5070171;28;20072;-67
2022/08/02 03:47:13;;;;;;;2.50;0.93;;;22.10;62.30;;;;;;5053769;28;20041;-67
2022/08/02 03:49:39;;;;;;;1.45;0.93;;;22.10;62.20;;;;;;5052807;28;20091;-67
2022/08/02 03:52:04;;;;;;;2.97;0.80;;;22.10;62.30;;;;;;5053579;28;20072;-67
2022/08/02 03:54:30;;;;;;;2.65;0.90;;;22.10;62.30;;;;;;5053823;28;20071;-67
2022/08/02 03:56:55;;;;;;;3.90;0.85;;;22.00;62.20;;;;;;5053773;28;20037;-68
2022/08/02 03:59:21;;;;;;;2.63;1.23;;;22.00;62.20;;;;;;5070401;28;20041;-67
2022/08/02 04:01:46;;;;;;;2.35;0.98;;;22.10;62.30;;;;;;5053877;28;20041;-67
2022/08/02 04:04:12;;;;;;;1.80;0.85;;;22.00;62.20;;;;;;5052466;28;20048;-67
2022/08/02 04:06:37;;;;;;;2.90;1.00;;;22.10;62.30;;;;;;5054027;28;20056;-67
2022/08/02 04:09:03;;;;;;;2.90;1.00;;;22.00;62.30;;;;;;5052583;28;20098;-68
2022/08/02 04:11:31;;;;;;;1.50;0.90;;;22.00;62.30;;;;;;5053731;28;20040;-67
2022/08/02 04:14:05;;;;;;;2.28;1.08;;;22.00;62.30;;;;;;5053021;28;20068;-67
2022/08/02 04:16:33;;;;;;;2.22;1.02;;;22.00;62.30;;;;;;5070193;28;20045;-67
2022/08/02 04:19:00;;;;;;;1.83;0.90;;;22.00;62.30;;;;;;5068972;28;20102;-67
2022/08/02 04:21:33;;;;;;;2.28;1.00;;;22.00;62.30;;;;;;5036659;28;20132;-67
2022/08/02 04:23:59;;;;;;;1.63;0.80;;;22.00;62.30;;;;;;5069208;28;20107;-67
2022/08/02 04:26:25;;;;;;;1.85;1.20;;;22.00;62.30;;;;;;5052250;28;20052;-67
2022/08/02 04:28:51;;;;;;;3.03;1.02;;;22.00;62.30;;;;;;5053540;28;20057;-67
2022/08/02 04:31:16;;;;;;;1.63;0.93;;;22.00;62.30;;;;;;5036392;28;20067;-68
2022/08/02 04:33:42;;;;;;;2.60;0.90;;;22.00;62.30;;;;;;5069138;28;20041;-67
2022/08/02 04:36:09;;;;;;;2.88;0.82;;;22.00;62.30;;;;;;5053024;28;20389;-67
2022/08/02 04:38:35;;;;;;;1.77;0.85;;;22.00;62.40;;;;;;5051844;28;20496;-67
2022/08/02 04:41:00;;;;;;;3.22;1.10;;;22.00;62.30;;;;;;5053855;28;20040;-68
2022/08/02 04:43:26;;;;;;;2.13;0.93;;;22.00;62.30;;;;;;5054105;28;20044;-68
2022/08/02 04:45:52;;;;;;;2.30;0.90;;;21.90;62.30;;;;;;5053016;28;20041;-68
2022/08/02 04:48:18;;;;;;;1.98;0.90;;;22.00;62.30;;;;;;5053790;28;20479;-67
2022/08/02 04:50:44;;;;;;;2.95;0.93;;;21.90;62.30;;;;;;5053685;28;20037;-68
2022/08/02 04:53:10;;;;;;;1.98;0.90;;;22.00;62.30;;;;;;5051740;28;20514;-68
2022/08/02 04:55:35;;;;;;;2.83;1.10;;;22.00;62.30;;;;;;5055843;28;20705;-68
2022/08/02 04:58:01;;;;;;;2.05;1.00;;;22.00;62.30;;;;;;5073476;28;20480;-67
2022/08/02 05:00:27;;;;;;;1.73;0.85;;;22.00;62.30;;;;;;5071476;28;20082;-67
2022/08/02 05:02:53;;;;;;;2.53;0.88;;;22.00;62.20;;;;;;5073139;28;20049;-67
2022/08/02 05:05:18;;;;;;;2.92;1.10;;;22.00;62.30;;;;;;5072599;28;20123;-67
2022/08/02 05:07:44;;;;;;;3.25;1.13;;;22.00;62.30;;;;;;5072097;28;20139;-67
2022/08/02 05:10:09;;;;;;;2.42;0.90;;;22.10;62.30;;;;;;5071991;28;20045;-67
2022/08/02 05:12:37;;;;;;;2.17;0.80;;;22.10;62.30;;;;;;5073284;28;20044;-67
2022/08/02 05:15:03;;;;;;;2.92;1.08;;;22.00;62.20;;;;;;5072216;28;20499;-67
2022/08/02 05:17:29;;;;;;;2.00;0.90;;;22.10;62.30;;;;;;5073218;28;20040;-67
2022/08/02 05:19:54;;;;;;;3.13;1.05;;;22.10;62.30;;;;;;5071605;28;20041;-67
2022/08/02 05:22:20;;;;;;;1.60;0.85;;;22.10;62.30;;;;;;5070995;28;20059;-67
2022/08/02 05:24:45;;;;;;;2.35;0.98;;;22.10;62.30;;;;;;5071279;28;20041;-67
2022/08/02 05:27:11;;;;;;;2.90;1.23;;;22.10;62.30;;;;;;5072062;28;20480;-67
2022/08/02 05:29:36;;;;;;;1.65;0.88;;;22.10;62.30;;;;;;5071962;28;20167;-68
2022/08/02 05:32:02;;;;;;;2.42;1.10;;;22.10;62.30;;;;;;5072630;28;20146;-67
2022/08/02 05:34:27;;;;;;;2.40;1.02;;;22.10;62.40;;;;;;5071892;28;20071;-67
2022/08/02 05:36:53;;;;;;;3.10;0.90;;;22.20;62.50;;;;;;5071685;28;20044;-67
2022/08/02 05:39:18;;;;;;;3.05;0.80;;;22.10;62.40;;;;;;5072591;28;20488;-68
2022/08/02 05:41:44;;;;;;;2.22;1.10;;;22.20;62.40;;;;;;5071565;28;20048;-68
2022/08/02 05:44:09;;;;;;;1.98;1.10;;;22.20;62.50;;;;;;5071127;28;20052;-67
2022/08/02 05:46:36;;;;;;;2.65;1.00;;;22.20;62.50;;;;;;5073000;28;20086;-67
2022/08/02 05:49:03;;;;;;;1.48;0.93;;;22.20;62.60;;;;;;5071760;28;20048;-67
2022/08/02 05:51:36;;;;;;;3.03;1.02;;;22.20;62.60;;;;;;5071326;28;20044;-67
2022/08/02 05:54:59;;;;;;;2.45;1.17;;;22.20;62.60;;;;;;5054416;28;20055;-67
2022/08/02 05:57:30;;;;;;;2.05;1.10;;;22.20;62.50;;;;;;5049479;28;20532;-67
2022/08/02 06:00:08;;;;;;;3.10;1.13;;;22.20;62.60;;;;;;5017082;28;20456;-68
2022/08/02 06:02:58;;;;;;;1.77;0.90;;;22.20;62.50;;;;;;5054161;28;20191;-67
2022/08/02 06:05:25;;;;;;;2.75;0.85;;;22.20;62.60;;;;;;5071839;28;20044;-67
2022/08/02 06:07:51;;;;;;;1.70;1.08;;;22.20;62.50;;;;;;5070971;28;20040;-67
2022/08/02 06:10:19;;;;;;;1.63;0.88;;;22.20;62.50;;;;;;5053692;28;20052;-67
2022/08/02 06:12:50;;;;;;;2.33;1.00;;;22.20;62.60;;;;;;5072321;28;20504;-68
2022/08/02 06:15:17;;;;;;;3.75;1.00;;;22.20;62.50;;;;;;5071628;28;20044;-67
2022/08/02 06:17:43;;;;;;;4.05;0.90;;;22.20;62.60;;;;;;5071715;28;20048;-67
2022/08/02 06:20:10;;;;;;;1.90;0.95;;;22.20;62.60;;;;;;5072671;28;20090;-67
2022/08/02 06:22:35;;;;;;;2.65;0.90;;;22.20;62.60;;;;;;5054665;28;20045;-67
2022/08/02 06:25:01;;;;;;;3.50;1.10;;;22.20;62.60;;;;;;5070014;28;20048;-67
2022/08/02 06:27:27;;;;;;;2.28;1.10;;;22.20;62.60;;;;;;5072536;28;20036;-67
2022/08/02 06:29:53;;;;;;;2.42;0.95;;;22.20;62.60;;;;;;5071948;28;20083;-69
2022/08/02 06:32:19;;;;;;;1.70;0.80;;;22.20;62.60;;;;;;5071856;28;20040;-74
2022/08/02 06:34:47;;;;;;;1.80;0.90;;;22.20;62.60;;;;;;5071952;28;20045;-75
2022/08/02 06:37:30;;;;;;;3.75;0.90;;;22.30;62.60;;;;;;5072238;28;20480;-74
2022/08/02 06:40:11;;;;;;;2.58;1.00;;;22.30;62.70;;;;;;5086690;28;20047;-74
2022/08/02 06:42:48;;;;;;;3.25;1.02;;;22.30;62.80;;;;;;5072282;28;20040;-75
2022/08/02 06:45:14;;;;;;;2.45;0.95;;;22.30;62.80;;;;;;5070364;28;20128;-74
2022/08/02 06:47:40;;;;;;;3.15;1.20;;;22.30;62.80;;;;;;5073169;28;20444;-74
2022/08/02 06:50:06;;;;;;;4.18;0.95;;;22.30;62.80;;;;;;5074593;28;20040;-74
2022/08/02 06:52:31;;;;;;;3.00;1.00;;;22.30;62.80;;;;;;5075575;28;20118;-74
2022/08/02 06:54:58;;;;;;;2.95;1.02;;;22.30;62.80;;;;;;5074451;28;20047;-74
2022/08/02 06:57:23;;;;;;;2.97;1.15;;;22.40;62.90;;;;;;5075963;28;20480;-73
2022/08/02 06:59:49;;;;;;;2.55;1.20;;;22.30;62.90;;;;;;5074946;28;20055;-77
2022/08/02 07:02:14;;;;;;;3.17;1.02;;;22.40;62.90;;;;;;5075891;28;20448;-75
2022/08/02 07:04:40;;;;;;;3.38;1.00;;;22.40;63.00;;;;;;5074560;28;20071;-75
2022/08/02 07:07:05;;;;;;;3.90;1.20;;;22.40;63.10;;;;;;5056962;28;20040;-74
2022/08/02 07:09:31;;;;;;;3.70;1.20;;;22.40;63.20;;;;;;5074567;28;20036;-76
2022/08/02 07:11:57;;;;;;;2.70;1.02;;;22.40;63.40;;;;;;5075322;28;20049;-77
2022/08/02 07:14:22;;;;;;;5.70;1.10;;;22.40;63.30;;;;;;5074080;28;20107;-76
2022/08/02 07:16:48;;;;;;;3.00;1.20;;;22.40;63.40;;;;;;5075292;28;20438;-77
2022/08/02 07:19:13;;;;;;;4.38;1.10;;;22.40;63.40;;;;;;5074604;28;20408;-77
2022/08/02 07:21:39;;;;;;;3.05;1.05;;;22.40;63.40;;;;;;5075057;28;20484;-75
2022/08/02 07:24:04;;;;;;;3.38;1.00;;;22.40;63.50;;;;;;5075033;28;20484;-73
2022/08/02 07:26:30;;;;;;;3.55;1.13;;;22.40;63.60;;;;;;5074010;28;20043;-75
2022/08/02 07:28:57;;;;;;;4.55;1.27;;;22.40;63.60;;;;;;5073371;28;20178;-73
2022/08/02 07:31:22;;;;;;;4.63;0.90;;;22.40;63.70;;;;;;5073552;28;20091;-76
2022/08/02 07:33:48;;;;;;;5.18;1.20;;;22.40;63.60;;;;;;5073468;28;20129;-75
2022/08/02 07:36:13;;;;;;;1.83;0.85;;;22.40;63.60;;;;;;5074591;28;20037;-73
2022/08/02 07:38:39;;;;;;;4.45;1.33;;;22.40;64.30;;;;;;5075274;28;20076;-71
2022/08/02 07:41:04;;;;;;;2.80;1.02;;;22.40;63.70;;;;;;5073449;28;20094;-69
2022/08/02 07:43:30;;;;;;;4.18;1.13;;;22.40;63.70;;;;;;5074421;28;20114;-68
2022/08/02 07:45:56;;;;;;;4.18;1.15;;;22.40;63.70;;;;;;5074693;28;20044;-72
2022/08/02 07:48:21;;;;;;;4.55;1.05;;;22.40;63.60;;;;;;5073864;28;20438;-72
2022/08/02 07:50:48;;;;;;;2.33;1.00;;;22.40;63.60;;;;;;5073038;28;20385;-72
2022/08/02 07:53:13;;;;;;;2.58;1.08;;;22.40;63.60;;;;;;5073508;28;20041;-72
2022/08/02 07:55:39;;;;;;;5.53;1.38;;;22.40;63.60;;;;;;5072696;28;20102;-71
2022/08/02 07:58:04;;;;;;;4.35;0.98;;;22.40;63.50;;;;;;5073443;28;20400;-73
2022/08/02 08:00:30;;;;;;;2.75;1.00;;;22.40;63.60;;;;;;5074408;28;20484;-73
2022/08/02 08:02:56;;;;;;;5.32;1.33;;;22.40;63.80;;;;;;5072457;28;20515;-75
2022/08/02 08:05:22;;;;;;;3.78;1.10;;;22.40;63.80;;;;;;5073478;28;20132;-74
2022/08/02 08:07:48;;;;;;;2.53;1.10;;;22.40;64.00;;;;;;5074430;28;20420;-75
2022/08/02 08:10:13;;;;;;;3.17;1.00;;;22.40;64.00;;;;;;5073893;28;20037;-73
2022/08/02 08:12:39;;;;;;;5.80;1.05;;;22.40;64.10;;;;;;5074492;28;20464;-73
2022/08/02 08:15:05;;;;;;;5.28;1.30;;;22.50;64.20;;;;;;5074024;28;20044;-76
2022/08/02 08:17:30;;;;;;;5.93;1.17;;;22.50;64.20;;;;;;5072352;28;20457;-76
2022/08/02 08:19:56;;;;;;;4.75;1.23;;;22.50;64.30;;;;;;5074116;28;20094;-78
2022/08/02 08:22:22;;;;;;;5.47;0.98;;;22.50;64.30;;;;;;5074919;28;20037;-76
2022/08/02 08:24:48;;;;;;;4.68;1.65;;;22.50;64.30;;;;;;5073125;28;20040;-72
2022/08/02 08:27:14;;;;;;;2.85;1.23;;;22.50;64.30;;;;;;5074526;28;20531;-72
2022/08/02 08:29:43;;;;;;;4.10;1.10;;;22.50;64.30;;;;;;5072765;28;20145;-73
2022/08/02 08:32:08;;;;;;;3.97;1.05;;;22.50;64.40;;;;;;5074120;28;20051;-73
2022/08/02 08:34:34;;;;;;;7.43;1.20;;;22.50;64.40;;;;;;5073115;28;20041;-72
2022/08/02 08:37:01;;;;;;;2.40;1.10;;;22.60;64.40;;;;;;5072907;28;20155;-73
2022/08/02 08:39:26;;;;;;;3.80;0.80;;;22.50;64.40;;;;;;5072403;28;20044;-73
2022/08/02 08:41:52;;;;;;;4.00;1.30;;;22.50;64.40;;;;;;5075772;28;20041;-74
2022/08/02 08:44:17;;;;;;;2.97;1.20;;;22.60;64.50;;;;;;5075533;28;20047;-73
2022/08/02 08:46:43;;;;;;;3.35;1.10;;;22.60;64.40;;;;;;5073943;28;20115;-75
2022/08/02 08:49:11;;;;;;;2.90;1.02;;;22.60;64.40;;;;;;5075049;28;20079;-74
2022/08/02 08:51:37;;;;;;;3.58;1.35;;;22.60;64.40;;;;;;5073566;28;20041;-74
2022/08/02 08:54:03;;;;;;;5.05;1.33;;;22.60;64.40;;;;;;5074163;28;20541;-73
2022/08/02 08:56:33;;;;;;;6.68;1.08;;;22.60;64.30;;;;;;5073041;28;20044;-74
2022/08/02 08:58:59;;;;;;;4.22;1.55;;;22.60;64.40;;;;;;5072739;28;20115;-74
2022/08/02 09:01:25;;;;;;;3.00;0.82;;;22.60;64.40;;;;;;5071174;28;20163;-73
2022/08/02 09:03:50;;;;;;;3.50;1.02;;;22.60;64.30;;;;;;5071815;28;20036;-72
2022/08/02 09:06:16;;;;;;;5.95;1.17;;;22.60;64.20;;;;;;5071490;28;20062;-73
2022/08/02 09:08:41;;;;;;;3.83;1.00;;;22.60;64.10;;;;;;5073537;28;20096;-72
2022/08/02 09:11:14;;;;;;;2.83;1.38;;;22.60;64.10;;;;;;5070938;28;20407;-73
2022/08/02 09:13:48;;;;;;;4.38;0.95;;;22.70;64.10;;;;;;5071402;28;20048;-74
2022/08/02 09:16:14;;;;;;;3.17;0.88;;;22.60;64.10;;;;;;5072289;28;20056;-73
2022/08/02 09:18:44;;;;;;;5.28;1.38;;;22.60;64.10;;;;;;5073179;28;20049;-76
2022/08/02 09:21:10;;;;;;;7.57;1.40;;;22.70;64.10;;;;;;5079389;28;20049;-76
2022/08/02 09:23:40;;;;;;;2.78;1.35;;;22.70;64.20;;;;;;5071488;28;20374;-74
2022/08/02 09:26:07;;;;;;;9.05;1.73;;;22.60;64.30;;;;;;5072837;28;20045;-77
2022/08/02 09:28:34;;;;;;;6.25;1.55;;;22.70;64.40;;;;;;5072072;28;20633;-79
2022/08/02 09:31:08;;;;;;;5.45;1.60;;;22.70;64.40;;;;;;5071385;28;20076;-83
2022/08/02 09:33:34;;;;;;;6.72;2.03;;;22.70;64.50;;;;;;5073004;28;20090;-80
2022/08/02 09:36:01;;;;;;;5.18;1.83;;;22.70;64.50;;;;;;5071765;28;20395;-80
2022/08/02 09:38:27;;;;;;;8.20;2.67;;;22.70;64.40;;;;;;5072949;28;20097;-71
2022/08/02 09:40:53;;;;;;;7.35;2.17;;;22.70;64.50;;;;;;5071096;28;20045;-78
2022/08/02 09:43:19;;;;;;;8.90;2.33;;;22.70;64.50;;;;;;5072472;28;20068;-78
2022/08/02 09:45:45;;;;;;;7.45;1.63;;;22.70;64.60;;;;;;5071163;28;20428;-77
2022/08/02 09:48:11;;;;;;;6.68;2.08;;;22.70;64.60;;;;;;5071043;28;20560;-77
2022/08/02 09:50:37;;;;;;;4.70;1.75;;;22.80;64.50;;;;;;5071371;28;20056;-77
2022/08/02 09:53:03;;;;;;;5.28;1.83;;;22.80;64.40;;;;;;5071386;28;20103;-77
2022/08/02 09:55:29;;;;;;;6.63;2.13;;;22.70;64.20;;;;;;5071768;28;20400;-76
2022/08/02 09:57:54;;;;;;;7.15;2.13;;;22.80;64.10;;;;;;5072567;28;20056;-75
2022/08/02 10:00:20;;;;;;;4.72;2.20;;;22.80;64.10;;;;;;5072831;28;20105;-75
2022/08/02 10:03:24;;;;;;;6.20;1.77;;;22.80;64.00;;;;;;5053767;28;20484;-75
2022/08/02 10:05:54;;;;;;;7.50;1.77;;;22.80;63.90;;;;;;5030270;28;20159;-75
2022/08/02 10:08:20;;;;;;;6.10;1.90;;;22.80;63.80;;;;;;5014315;28;20489;-80
2022/08/02 10:10:47;;;;;;;7.60;1.85;;;22.80;63.60;;;;;;5050207;28;20055;-81
2022/08/02 10:13:13;;;;;;;7.55;1.65;;;22.80;63.60;;;;;;5072814;28;20044;-75
2022/08/02 10:15:38;;;;;;;16.55;2.13;;;22.80;63.40;;;;;;5071512;28;20049;-76
2022/08/02 10:18:07;;;;;;;8.43;1.90;;;22.80;63.30;;;;;;5071652;28;20147;-75
2022/08/02 10:20:39;;;;;;;4.07;1.30;;;22.80;63.00;;;;;;5071915;28;20044;-75
2022/08/02 10:23:06;;;;;;;6.65;1.65;;;22.80;62.70;;;;;;5074718;28;20060;-75
2022/08/02 10:25:31;;;;;;;6.20;1.92;;;22.80;62.60;;;;;;5057744;28;20037;-74
2022/08/02 10:27:57;;;;;;;8.82;2.03;;;22.80;62.70;;;;;;5057754;28;20415;-78
2022/08/02 10:30:23;;;;;;;9.27;1.80;;;22.90;62.90;;;;;;5057507;28;20059;-74
2022/08/02 10:32:48;;;;;;;6.15;1.70;;;22.90;63.20;;;;;;5057474;28;20415;-77
2022/08/02 10:35:18;;;;;;;5.15;1.48;;;22.90;63.40;;;;;;5075877;28;20041;-77
2022/08/02 10:37:43;;;;;;;5.93;1.80;;;22.90;63.50;;;;;;5054833;28;20163;-79
2022/08/02 10:40:22;;;;;;;5.30;1.80;;;23.00;63.70;;;;;;5072992;28;20497;-80
2022/08/02 10:42:48;;;;;;;;;;;22.90;63.70;;;;;;5071454;28;20048;-78
2022/08/02 10:45:15;;;;;;;3.15;1.40;;;22.90;63.50;;;;;;5075390;28;20357;-78
2022/08/02 10:48:10;;;;;;;6.10;1.80;;;23.00;63.40;;;;;;5074788;28;20484;-79
2022/08/02 10:50:45;;;;;;;5.25;1.45;;;22.90;63.10;;;;;;5075050;28;20059;-78
2022/08/02 10:53:23;;;;;;;5.95;1.60;;;23.00;63.10;;;;;;5075091;28;20495;-78
2022/08/02 10:55:49;;;;;;;5.90;1.65;;;23.00;63.00;;;;;;5074741;28;20053;-77
2022/08/02 10:58:18;;;;;;;7.57;1.50;;;23.00;63.00;;;;;;5074743;28;20365;-79
2022/08/02 11:00:44;;;;;;;4.95;1.83;;;23.00;62.90;;;;;;5073359;28;20052;-79
2022/08/02 11:03:28;;;;;;;4.10;1.30;;;23.00;62.90;;;;;;5073112;28;20047;-75
2022/08/02 11:06:03;;;;;;;4.38;1.60;;;23.00;63.00;;;;;;5074228;28;20044;-78
2022/08/02 11:08:29;;;;;;;3.90;1.50;;;23.00;63.00;;;;;;5076084;28;20539;-77
2022/08/02 11:11:04;;;;;;;6.75;1.88;;;23.00;63.10;;;;;;5074198;28;20076;-77
2022/08/02 11:13:30;;;;;;;6.22;2.10;;;23.00;63.20;;;;;;5073658;28;20044;-78
2022/08/02 11:16:03;;;;;;;5.57;1.73;;;23.00;63.20;;;;;;5074391;28;20487;-79
2022/08/02 11:19:01;;;;;;;4.78;1.67;;;23.00;63.30;;;;;;5074331;28;20072;-80
2022/08/02 11:21:28;;;;;;;2.92;1.38;;;23.00;63.20;;;;;;5051973;28;20072;-80
2022/08/02 11:23:54;;;;;;;4.05;1.80;;;23.00;63.30;;;;;;5074046;28;20048;-78
2022/08/02 11:26:29;;;;;;;5.22;1.70;;;23.10;63.40;;;;;;5074365;28;20052;-78
2022/08/02 11:28:55;;;;;;;6.47;2.20;;;23.10;63.50;;;;;;5073844;28;20057;-73
2022/08/02 11:31:20;;;;;;;5.90;2.10;;;23.10;63.50;;;;;;5073898;28;20071;-75
2022/08/02 11:33:48;;;;;;;6.03;1.83;;;23.10;63.30;;;;;;5072275;28;20044;-74
2022/08/02 11:36:13;;;;;;;6.30;2.20;;;23.10;63.30;;;;;;5073842;28;20094;-74
2022/08/02 11:38:39;;;;;;;7.10;2.13;;;23.10;63.20;;;;;;5074227;28;20048;-74
2022/08/02 11:41:04;;;;;;;5.57;1.80;;;23.10;63.20;;;;;;5072475;28;20407;-75
2022/08/02 11:43:30;;;;;;;3.70;1.75;;;23.10;63.30;;;;;;5075106;28;20721;-75
2022/08/02 11:45:56;;;;;;;5.10;2.00;;;23.10;63.50;;;;;;5074748;28;20044;-75
2022/08/02 11:48:31;;;;;;;5.32;1.90;;;23.20;63.60;;;;;;5074522;28;20572;-70
2022/08/02 11:51:13;;;;;;;4.45;1.90;;;23.20;63.90;;;;;;5073760;28;20045;-73
2022/08/02 11:53:50;;;;;;;5.85;1.90;;;23.20;63.80;;;;;;5075020;28;20145;-76
2022/08/02 11:56:17;;;;;;;6.80;2.35;;;23.20;64.10;;;;;;5072945;28;20499;-76
2022/08/02 11:59:02;;;;;;;6.63;1.85;;;23.20;64.00;;;;;;5073815;28;20408;-75
2022/08/02 12:01:29;;;;;;;6.85;1.98;;;23.20;63.80;;;;;;5074834;28;20048;-76
2022/08/02 12:03:57;;;;;;;5.50;1.90;;;23.20;63.80;;;;;;5073781;28;20045;-75
2022/08/02 12:06:24;;;;;;;4.70;1.90;;;23.20;63.80;;;;;;5074562;28;20059;-76
2022/08/02 12:08:50;;;;;;;5.35;2.30;;;23.20;63.80;;;;;;5072315;28;20041;-77
2022/08/02 12:11:18;;;;;;;7.50;2.38;;;23.20;63.80;;;;;;5074676;28;20178;-75
2022/08/02 12:13:44;;;;;;;3.17;2.00;;;23.20;64.40;;;;;;5073139;28;20045;-77
2022/08/02 12:21:39;;;;;;;5.43;2.15;;;23.20;63.60;;;;;;5073164;28;20052;-79
2022/08/02 12:24:05;;;;;;;4.07;1.52;;;23.20;63.60;;;;;;5073401;28;20040;-76
2022/08/02 12:26:42;;;;;;;4.80;2.20;;;23.30;63.60;;;;;;5056580;28;20059;-76
2022/08/02 12:29:08;;;;;;;6.25;1.60;;;23.30;63.60;;;;;;5072943;28;20080;-75
2022/08/02 12:31:44;;;;;;;4.32;1.45;;;23.30;63.50;;;;;;5072575;28;20488;-77
2022/08/02 12:34:17;;;;;;;4.85;1.70;;;23.30;63.50;;;;;;5074319;28;20043;-75
2022/08/02 12:36:43;;;;;;;3.95;1.70;;;23.30;63.50;;;;;;5073927;28;20403;-76
2022/08/02 12:39:15;;;;;;;4.90;1.90;;;23.30;63.40;;;;;;5071900;28;20048;-78
2022/08/02 12:41:41;;;;;;;3.15;1.55;;;23.40;63.40;;;;;;5074101;28;20119;-76
2022/08/02 12:44:15;;;;;;;4.55;1.70;;;23.30;63.40;;;;;;5073040;28;20826;-75
2022/08/02 12:46:40;;;;;;;3.85;1.50;;;23.30;63.40;;;;;;5073306;28;20063;-81
2022/08/02 12:49:16;;;;;;;4.40;1.83;;;23.30;63.50;;;;;;5072052;28;20041;-80
2022/08/02 12:51:43;;;;;;;4.63;1.67;;;23.30;64.00;;;;;;5068599;28;20049;-79
2022/08/02 12:54:17;;;;;;;4.40;2.00;;;23.20;64.40;;;;;;5071937;28;20041;-76
2022/08/02 12:56:43;;;;;;;3.97;1.55;;;23.20;64.80;;;;;;5069856;28;20045;-80
2022/08/02 12:59:09;;;;;;;4.68;1.90;;;23.20;64.70;;;;;;5072164;28;20036;-80